Time;durP1;ratioP1;P1;durP2;ratioP2;P2;SDS_P1;SDS_P2;PMS_P1;PMS_P2;Temp;Humidity;BMP_temperature;BMP_pressure;BME280_temperature;BME280_humidity;BME280_pressure;Samples;Min_cycle;Max_cycle;Signal;HPM_P1;HPM_P2
2022/06/10 18:54:11;;;;;;;5.60;1.75;;;25.30;61.50;;;;;;5753194;23;20064;-78
2022/06/10 18:56:44;;;;;;;3.97;1.80;;;25.00;62.30;;;;;;4899755;29;20052;-79
2022/06/10 18:59:11;;;;;;;4.32;1.60;;;24.70;62.70;;;;;;4901268;29;20024;-75
2022/06/10 19:01:39;;;;;;;4.50;1.45;;;24.60;63.40;;;;;;4908282;29;20051;-77
2022/06/10 19:04:14;;;;;;;3.08;1.00;;;24.40;63.80;;;;;;4909215;29;20028;-76
2022/06/10 19:06:40;;;;;;;3.35;1.40;;;24.20;64.20;;;;;;4890066;29;20341;-76
2022/06/10 19:09:06;;;;;;;5.10;1.50;;;24.10;64.90;;;;;;4890459;29;20037;-77
2022/06/10 19:11:32;;;;;;;4.75;1.60;;;24.00;64.70;;;;;;4888372;29;20056;-77
2022/06/10 19:13:58;;;;;;;4.25;1.70;;;24.00;65.70;;;;;;4899746;29;20317;-75
2022/06/10 19:16:36;;;;;;;4.57;1.73;;;24.00;66.00;;;;;;4906747;29;20052;-76
2022/06/10 19:19:31;;;;;;;4.65;1.80;;;23.90;66.40;;;;;;4908810;29;20032;-78
2022/06/10 19:22:01;;;;;;;3.72;1.63;;;23.80;65.90;;;;;;4906264;29;20155;-76
2022/06/10 19:24:31;;;;;;;3.85;1.27;;;23.60;66.60;;;;;;4908287;29;20250;-77
2022/06/10 19:27:00;;;;;;;4.95;1.52;;;23.60;66.40;;;;;;4908850;29;20029;-78
2022/06/10 19:29:27;;;;;;;4.40;1.63;;;23.60;66.60;;;;;;4908079;29;20255;-76
2022/06/10 19:32:00;;;;;;;4.00;1.52;;;23.50;66.90;;;;;;4908219;29;20096;-76
2022/06/10 19:34:42;;;;;;;3.38;1.48;;;23.30;67.00;;;;;;4908681;29;20024;-78
2022/06/10 19:37:21;;;;;;;5.05;1.80;;;23.20;67.40;;;;;;4908546;29;20061;-78
2022/06/10 19:39:52;;;;;;;4.45;1.38;;;22.90;67.10;;;;;;4908209;29;20059;-78
2022/06/10 19:42:25;;;;;;;3.13;1.40;;;22.80;68.00;;;;;;4908849;29;20051;-78
2022/06/10 19:44:51;;;;;;;5.40;1.75;;;22.60;69.40;;;;;;4896851;29;20101;-78
2022/06/10 19:47:23;;;;;;;6.05;1.85;;;22.40;70.30;;;;;;4889564;29;20049;-78
2022/06/10 19:50:00;;;;;;;4.78;2.42;;;22.40;69.60;;;;;;4889806;29;20040;-77
2022/06/10 19:52:31;;;;;;;6.93;3.13;;;22.20;70.60;;;;;;4889305;29;20032;-78
2022/06/10 19:55:02;;;;;;;5.32;2.80;;;22.10;71.10;;;;;;4889355;29;20280;-78
2022/06/10 19:57:32;;;;;;;6.63;3.20;;;22.00;71.40;;;;;;4888999;29;20076;-78
2022/06/10 19:59:58;;;;;;;7.55;3.92;;;21.90;71.60;;;;;;4887913;29;20072;-79
2022/06/10 20:02:37;;;;;;;9.45;3.78;;;21.80;72.50;;;;;;4907227;29;20044;-78
2022/06/10 20:05:12;;;;;;;6.47;3.78;;;21.70;73.10;;;;;;4908552;29;20035;-78
2022/06/10 20:07:39;;;;;;;7.13;3.13;;;21.60;73.50;;;;;;4907876;29;20064;-78
2022/06/10 20:10:08;;;;;;;8.10;3.85;;;21.40;73.70;;;;;;4908256;29;20020;-78
2022/06/10 20:12:35;;;;;;;6.72;3.40;;;21.30;74.70;;;;;;4891410;29;20310;-77
2022/06/10 20:15:01;;;;;;;7.57;3.45;;;21.10;74.80;;;;;;4908019;29;20028;-78
2022/06/10 20:17:37;;;;;;;8.10;3.58;;;21.00;75.40;;;;;;4907000;29;20326;-78
2022/06/10 20:20:24;;;;;;;5.63;3.15;;;20.90;76.30;;;;;;4907828;29;20081;-76
2022/06/10 20:22:51;;;;;;;6.70;3.35;;;20.80;76.70;;;;;;4908909;29;20039;-80
2022/06/10 20:25:33;;;;;;;6.35;3.38;;;20.60;77.10;;;;;;4907989;29;20032;-78
2022/06/10 20:28:00;;;;;;;6.32;3.30;;;20.50;77.60;;;;;;4907767;29;20041;-78
2022/06/10 20:30:27;;;;;;;7.28;4.05;;;20.40;77.90;;;;;;4907115;29;20032;-79
2022/06/10 20:32:59;;;;;;;5.43;3.30;;;20.30;78.10;;;;;;4907588;29;20055;-79
2022/06/10 20:35:32;;;;;;;5.75;3.03;;;20.20;78.60;;;;;;4907690;29;20103;-79
2022/06/10 20:37:59;;;;;;;7.15;3.05;;;20.00;78.70;;;;;;4906608;29;20032;-80
2022/06/10 20:40:28;;;;;;;5.90;2.90;;;20.00;79.40;;;;;;4907591;29;20221;-79
2022/06/10 20:42:56;;;;;;;7.32;3.05;;;19.90;79.80;;;;;;4907645;29;20057;-78
2022/06/10 20:45:24;;;;;;;5.82;2.60;;;19.80;80.00;;;;;;4907253;29;20358;-78
2022/06/10 20:47:51;;;;;;;5.35;2.50;;;19.70;79.80;;;;;;4907059;29;20059;-78
2022/06/10 20:50:34;;;;;;;5.35;2.58;;;19.80;79.60;;;;;;4907692;29;20095;-78
2022/06/10 20:53:03;;;;;;;5.90;2.70;;;19.70;80.10;;;;;;4907484;29;20036;-79
2022/06/10 20:55:41;;;;;;;4.32;2.65;;;19.60;80.60;;;;;;4906582;29;20238;-79
2022/06/10 20:58:18;;;;;;;6.32;3.47;;;19.50;80.50;;;;;;4907374;29;20318;-78
2022/06/10 21:00:47;;;;;;;6.30;3.33;;;19.40;81.20;;;;;;4906572;29;20091;-78
2022/06/10 21:03:21;;;;;;;;;;;19.30;81.50;;;;;;4908177;29;20032;-79
2022/06/10 21:08:32;;;;;;;5.13;2.65;;;19.20;82.10;;;;;;4906070;29;20055;-77
2022/06/10 21:10:57;;;;;;;5.80;3.20;;;19.10;82.70;;;;;;4906835;29;20020;-77
2022/06/10 21:13:24;;;;;;;6.70;2.70;;;19.00;82.70;;;;;;4907431;29;20035;-77
2022/06/10 21:15:53;;;;;;;7.00;3.30;;;19.00;83.00;;;;;;4906232;29;20067;-77
2022/06/10 21:18:35;;;;;;;6.38;2.90;;;18.90;82.90;;;;;;4907581;29;20036;-78
2022/06/10 21:21:15;;;;;;;7.65;3.50;;;18.90;83.50;;;;;;4907276;29;20040;-78
2022/06/10 21:23:42;;;;;;;6.97;3.15;;;18.70;84.30;;;;;;4907021;29;20095;-80
2022/06/10 21:26:15;;;;;;;6.90;3.80;;;18.60;84.80;;;;;;4907698;29;20020;-78
2022/06/10 21:28:42;;;;;;;6.10;3.20;;;18.50;85.10;;;;;;4906772;29;20044;-78
2022/06/10 21:31:18;;;;;;;6.43;3.40;;;18.40;85.10;;;;;;4906722;29;20084;-79
2022/06/10 21:34:01;;;;;;;8.00;3.40;;;18.40;84.70;;;;;;4906425;29;20028;-79
2022/06/10 21:36:34;;;;;;;6.55;3.72;;;18.40;85.70;;;;;;4906132;29;20382;-80
2022/06/10 21:39:05;;;;;;;4.70;2.97;;;18.30;85.40;;;;;;4906981;29;20033;-79
2022/06/10 21:41:39;;;;;;;6.82;3.00;;;18.30;85.60;;;;;;4906254;29;20048;-78
2022/06/10 21:44:11;;;;;;;5.38;2.85;;;18.20;85.30;;;;;;4907136;29;20043;-79
2022/06/10 21:46:53;;;;;;;8.57;2.97;;;18.20;85.90;;;;;;4906027;29;20203;-78
2022/06/10 21:49:22;;;;;;;5.07;2.97;;;18.20;85.90;;;;;;4907070;29;20044;-79
2022/06/10 21:51:49;;;;;;;5.40;2.88;;;18.10;86.90;;;;;;4905146;29;20020;-79
2022/06/10 21:54:18;;;;;;;7.40;2.65;;;18.00;87.00;;;;;;4906545;29;20124;-79
2022/06/10 21:56:45;;;;;;;5.57;2.38;;;17.90;86.90;;;;;;4905377;29;20036;-79
2022/06/10 21:59:24;;;;;;;5.07;2.60;;;17.90;86.60;;;;;;4906845;29;20096;-79
2022/06/10 22:01:54;;;;;;;4.90;2.95;;;17.90;86.70;;;;;;4906231;29;20338;-79
2022/06/10 22:04:25;;;;;;;6.28;2.83;;;17.80;87.20;;;;;;4906699;29;20033;-78
2022/06/10 22:06:55;;;;;;;6.60;3.05;;;17.80;86.90;;;;;;4906451;29;20051;-79
2022/06/10 22:09:32;;;;;;;6.30;2.92;;;17.70;88.20;;;;;;4906635;29;20044;-79
2022/06/10 22:12:01;;;;;;;8.05;3.42;;;17.70;87.90;;;;;;4906722;29;20354;-79
2022/06/10 22:14:27;;;;;;;6.25;3.35;;;17.70;88.50;;;;;;4906652;29;20048;-78
2022/06/10 22:16:57;;;;;;;6.30;3.13;;;17.60;88.80;;;;;;4905819;29;20083;-78
2022/06/10 22:19:38;;;;;;;6.45;3.50;;;17.60;89.30;;;;;;4907347;29;20204;-78
2022/06/10 22:22:20;;;;;;;6.85;3.58;;;17.50;89.70;;;;;;4907511;29;20123;-78
2022/06/10 22:24:50;;;;;;;6.72;3.60;;;17.30;90.20;;;;;;4909503;29;20039;-78
2022/06/10 22:27:20;;;;;;;6.82;3.72;;;17.20;90.60;;;;;;4910063;29;20046;-79
2022/06/10 22:29:46;;;;;;;7.03;3.50;;;17.10;90.80;;;;;;4909663;29;20381;-78
2022/06/10 22:32:15;;;;;;;8.40;3.40;;;17.00;91.10;;;;;;4909588;29;20136;-78
2022/06/10 22:34:44;;;;;;;6.05;2.88;;;17.00;90.90;;;;;;4909278;29;20195;-78
2022/06/10 22:37:17;;;;;;;6.30;3.10;;;16.90;91.20;;;;;;4909823;29;20068;-77
2022/06/10 22:39:43;;;;;;;4.45;2.90;;;16.90;91.20;;;;;;4909037;29;20048;-77
2022/06/10 22:42:09;;;;;;;6.65;3.63;;;16.80;91.60;;;;;;4909950;29;20056;-77
2022/06/10 22:44:35;;;;;;;5.38;2.97;;;16.80;91.70;;;;;;4908500;29;20028;-78
2022/06/10 22:47:05;;;;;;;5.32;3.47;;;16.70;91.90;;;;;;4909479;29;20059;-78
2022/06/10 22:49:40;;;;;;;9.10;3.30;;;16.70;92.10;;;;;;4910040;29;20040;-79
2022/06/10 22:52:17;;;;;;;7.55;3.50;;;16.60;92.30;;;;;;4909512;29;20051;-78
2022/06/10 22:54:45;;;;;;;6.43;3.20;;;16.60;92.50;;;;;;4909403;29;20094;-78
2022/06/10 22:57:20;;;;;;;5.55;3.10;;;16.50;92.50;;;;;;4908376;29;20036;-78
2022/06/10 22:59:49;;;;;;;6.88;2.90;;;16.50;92.60;;;;;;4909028;29;20047;-78
